Time;durP1;ratioP1;P1;durP2;ratioP2;P2;SDS_P1;SDS_P2;PMS_P1;PMS_P2;Temp;Humidity;BMP_temperature;BMP_pressure;BME280_temperature;BME280_humidity;BME280_pressure;Samples;Min_cycle;Max_cycle;Signal;HPM_P1;HPM_P2
2023/07/16 00:01:52;;;;;;;4.03;2.20;;;26.20;55.00;;;;;;4922071;28;20091;-62
2023/07/16 00:04:17;;;;;;;2.55;1.90;;;26.10;55.00;;;;;;4925729;28;20035;-61
2023/07/16 00:06:43;;;;;;;2.50;2.00;;;26.10;54.80;;;;;;4928280;28;20043;-61
2023/07/16 00:09:08;;;;;;;2.10;1.80;;;26.10;54.90;;;;;;4945333;28;20027;-61
2023/07/16 00:11:34;;;;;;;2.30;2.10;;;26.10;55.00;;;;;;4945311;28;20035;-60
2023/07/16 00:14:01;;;;;;;3.97;2.30;;;26.10;55.00;;;;;;4945399;28;20054;-61
2023/07/16 00:16:27;;;;;;;2.50;1.92;;;26.10;55.00;;;;;;4944399;28;20062;-61
2023/07/16 00:18:53;;;;;;;1.80;1.67;;;26.10;55.00;;;;;;4941040;28;20036;-60
2023/07/16 00:21:18;;;;;;;2.42;2.03;;;26.10;54.80;;;;;;4944734;28;20082;-61
2023/07/16 00:23:44;;;;;;;2.05;1.75;;;26.10;54.90;;;;;;4943136;28;20050;-62
2023/07/16 00:26:09;;;;;;;1.85;1.58;;;26.10;55.20;;;;;;4943915;28;20536;-60
2023/07/16 00:28:35;;;;;;;2.00;1.70;;;26.10;55.00;;;;;;4943316;28;20794;-59
2023/07/16 00:31:01;;;;;;;3.13;2.08;;;26.10;55.00;;;;;;4945074;28;20113;-61
2023/07/16 00:33:26;;;;;;;2.95;2.03;;;26.10;55.30;;;;;;4942284;28;20031;-61
2023/07/16 00:35:52;;;;;;;2.55;2.03;;;26.10;54.90;;;;;;4943030;28;20097;-61
2023/07/16 00:38:18;;;;;;;2.47;1.70;;;26.10;54.90;;;;;;4942200;28;20787;-61
2023/07/16 00:40:44;;;;;;;2.72;1.70;;;26.10;55.10;;;;;;4925341;28;20586;-61
2023/07/16 00:43:10;;;;;;;1.95;1.67;;;26.10;55.10;;;;;;4924953;28;20114;-61
2023/07/16 00:45:37;;;;;;;2.22;1.40;;;26.10;55.20;;;;;;4922704;28;20713;-60
2023/07/16 00:48:05;;;;;;;2.28;1.70;;;26.10;54.80;;;;;;4923163;28;20049;-59
2023/07/16 00:50:33;;;;;;;3.05;1.67;;;26.10;54.90;;;;;;4936149;28;20042;-62
2023/07/16 00:53:03;;;;;;;2.53;2.10;;;26.10;54.90;;;;;;4941600;28;20040;-60
2023/07/16 00:55:31;;;;;;;1.90;1.48;;;26.10;55.00;;;;;;4942674;28;20357;-59
2023/07/16 00:58:07;;;;;;;1.75;1.60;;;26.10;54.90;;;;;;4941464;28;20035;-61
2023/07/16 01:00:37;;;;;;;1.63;1.40;;;26.10;54.80;;;;;;4946180;28;20031;-61
2023/07/16 01:03:04;;;;;;;2.72;1.52;;;26.10;54.70;;;;;;4927118;28;20032;-61
2023/07/16 01:05:45;;;;;;;1.95;1.50;;;26.10;54.70;;;;;;4942614;28;20039;-61
2023/07/16 01:08:12;;;;;;;2.03;1.55;;;26.10;54.70;;;;;;4940499;28;20039;-60
2023/07/16 01:10:39;;;;;;;1.67;1.30;;;26.20;54.90;;;;;;4944327;28;20031;-62
2023/07/16 01:13:04;;;;;;;1.75;1.60;;;26.20;55.00;;;;;;4936615;28;20036;-61
2023/07/16 01:15:30;;;;;;;1.77;1.48;;;26.10;54.90;;;;;;4922753;28;20198;-59
2023/07/16 01:17:55;;;;;;;2.22;1.48;;;26.20;54.80;;;;;;4918935;28;20037;-61
2023/07/16 01:20:21;;;;;;;1.38;1.23;;;26.10;54.70;;;;;;4921885;28;20054;-60
2023/07/16 01:23:11;;;;;;;1.67;1.30;;;26.10;55.00;;;;;;4925681;28;20039;-59
2023/07/16 01:26:05;;;;;;;1.67;1.27;;;26.20;55.00;;;;;;4944329;28;20039;-60
2023/07/16 01:28:57;;;;;;;2.15;1.63;;;26.10;55.00;;;;;;4930925;28;20032;-60
2023/07/16 01:31:23;;;;;;;3.13;1.30;;;26.10;55.00;;;;;;4939963;28;20038;-60
2023/07/16 01:33:51;;;;;;;3.53;1.40;;;26.10;54.90;;;;;;4942007;28;20032;-61
2023/07/16 01:36:18;;;;;;;1.63;1.40;;;26.10;54.90;;;;;;4942173;28;20091;-61
2023/07/16 01:38:44;;;;;;;3.35;1.35;;;26.10;55.10;;;;;;4939548;28;20031;-61
2023/07/16 01:41:10;;;;;;;2.80;1.52;;;26.10;54.80;;;;;;4932572;28;20131;-62
2023/07/16 01:43:36;;;;;;;2.30;1.48;;;26.10;54.80;;;;;;4923978;28;20032;-62
2023/07/16 01:46:02;;;;;;;1.25;1.02;;;26.10;55.00;;;;;;4920757;28;20040;-60
2023/07/16 01:48:33;;;;;;;1.40;1.27;;;26.10;55.20;;;;;;4922839;28;20058;-62
2023/07/16 01:50:59;;;;;;;1.23;1.13;;;26.10;55.30;;;;;;4920481;28;20040;-61
2023/07/16 01:53:25;;;;;;;2.53;1.52;;;26.10;55.30;;;;;;4922491;28;20035;-61
2023/07/16 01:55:51;;;;;;;1.90;1.17;;;26.10;55.20;;;;;;4937804;28;20036;-61
2023/07/16 01:58:16;;;;;;;2.58;1.60;;;26.10;55.30;;;;;;4922971;28;20062;-59
2023/07/16 02:00:42;;;;;;;0.98;0.98;;;26.10;55.50;;;;;;4938400;28;20035;-61
2023/07/16 02:03:08;;;;;;;1.80;1.33;;;26.10;55.30;;;;;;4940604;28;20035;-60
2023/07/16 02:05:34;;;;;;;2.20;1.30;;;26.10;55.40;;;;;;4938093;28;20058;-60
2023/07/16 02:07:59;;;;;;;2.03;1.20;;;26.10;56.10;;;;;;4943999;28;20527;-59
2023/07/16 02:10:25;;;;;;;2.08;1.70;;;26.10;55.50;;;;;;4941813;28;20043;-59
2023/07/16 02:12:50;;;;;;;2.13;1.25;;;26.10;55.40;;;;;;4937387;28;20114;-60
2023/07/16 02:15:17;;;;;;;2.03;1.48;;;26.10;55.50;;;;;;4944097;28;20576;-61
2023/07/16 02:17:43;;;;;;;2.20;1.55;;;26.10;55.50;;;;;;4942063;28;20028;-61
2023/07/16 02:20:10;;;;;;;2.22;1.00;;;26.10;55.50;;;;;;4946233;28;20535;-60
2023/07/16 02:22:36;;;;;;;1.70;1.30;;;26.10;55.60;;;;;;4944551;28;20055;-62
2023/07/16 02:25:02;;;;;;;2.92;1.55;;;26.00;55.40;;;;;;4948321;28;20464;-61
2023/07/16 02:27:27;;;;;;;3.17;1.35;;;26.10;55.60;;;;;;4944207;28;20023;-61
2023/07/16 02:29:53;;;;;;;1.88;1.30;;;26.10;55.50;;;;;;4945418;28;20043;-62
2023/07/16 02:32:18;;;;;;;1.30;1.17;;;26.10;55.60;;;;;;4944476;28;20101;-60
2023/07/16 02:34:44;;;;;;;2.10;1.40;;;26.00;55.60;;;;;;4947074;28;20031;-62
2023/07/16 02:37:10;;;;;;;1.77;1.45;;;26.10;55.60;;;;;;4943916;28;20042;-61
2023/07/16 02:39:35;;;;;;;2.38;1.45;;;26.10;55.60;;;;;;4949102;28;20027;-61
2023/07/16 02:42:01;;;;;;;1.55;1.30;;;26.10;55.60;;;;;;4934809;28;20042;-61
2023/07/16 02:44:26;;;;;;;1.90;1.35;;;26.00;55.80;;;;;;4947333;28;20028;-60
2023/07/16 02:46:52;;;;;;;1.65;1.10;;;26.10;55.70;;;;;;4942809;28;20070;-61
2023/07/16 02:49:17;;;;;;;3.22;1.30;;;26.00;55.90;;;;;;4949865;28;20019;-58
2023/07/16 02:51:43;;;;;;;2.47;1.25;;;26.00;55.70;;;;;;4940555;28;20210;-61
2023/07/16 02:54:08;;;;;;;1.35;1.17;;;26.00;55.70;;;;;;4936859;28;20024;-61
2023/07/16 02:56:34;;;;;;;1.85;1.23;;;26.00;55.80;;;;;;4924433;28;20050;-61
2023/07/16 02:59:00;;;;;;;1.67;1.20;;;26.10;55.60;;;;;;4920823;28;20036;-61
2023/07/16 03:01:25;;;;;;;2.90;1.40;;;26.10;55.90;;;;;;4940277;28;20033;-59
2023/07/16 03:03:51;;;;;;;2.35;1.65;;;26.00;55.70;;;;;;4946932;28;20035;-60
2023/07/16 03:06:16;;;;;;;2.17;1.40;;;26.10;55.80;;;;;;4942966;28;20035;-59
2023/07/16 03:08:42;;;;;;;1.30;1.10;;;26.00;55.60;;;;;;4950589;28;20502;-61
2023/07/16 03:11:08;;;;;;;1.35;1.17;;;26.00;55.80;;;;;;4942788;28;20122;-60
2023/07/16 03:13:33;;;;;;;1.23;1.13;;;26.10;55.90;;;;;;4944548;28;20086;-61
2023/07/16 03:15:59;;;;;;;1.88;1.10;;;26.00;55.60;;;;;;4942844;28;20050;-61
2023/07/16 03:18:29;;;;;;;2.72;1.60;;;26.00;55.90;;;;;;4943243;28;20317;-61
2023/07/16 03:20:55;;;;;;;1.83;1.42;;;26.00;55.70;;;;;;4925797;28;20039;-61
2023/07/16 03:23:20;;;;;;;3.45;1.45;;;26.00;55.90;;;;;;4938610;28;20966;-61
2023/07/16 03:25:46;;;;;;;2.08;1.30;;;26.00;56.00;;;;;;4940618;28;20055;-61
2023/07/16 03:28:11;;;;;;;1.60;1.15;;;26.00;55.70;;;;;;4938239;28;20086;-61
2023/07/16 03:30:37;;;;;;;2.45;1.08;;;26.00;55.70;;;;;;4937634;28;20019;-59
2023/07/16 03:33:04;;;;;;;2.13;0.93;;;26.00;55.80;;;;;;4936354;28;20408;-61
2023/07/16 03:35:30;;;;;;;3.40;1.30;;;26.00;55.90;;;;;;4943471;28;20571;-61
2023/07/16 03:37:56;;;;;;;2.60;1.08;;;26.00;55.90;;;;;;4943442;28;20035;-60
2023/07/16 03:40:26;;;;;;;2.25;1.05;;;26.00;55.80;;;;;;4950904;28;20067;-60
2023/07/16 03:42:52;;;;;;;1.42;1.33;;;26.00;55.70;;;;;;4930330;28;20040;-59
2023/07/16 03:45:18;;;;;;;1.77;1.25;;;26.00;55.70;;;;;;4930077;28;20035;-61
2023/07/16 03:47:43;;;;;;;1.85;1.13;;;26.00;55.70;;;;;;4989362;23;20057;-50
2023/07/16 03:50:09;;;;;;;1.48;1.17;;;26.00;55.90;;;;;;4969015;28;20109;-50
2023/07/16 03:52:35;;;;;;;1.83;1.15;;;26.00;55.70;;;;;;4983649;28;20670;-50
2023/07/16 03:55:00;;;;;;;1.73;1.33;;;26.00;55.70;;;;;;4976399;28;20027;-52
2023/07/16 03:57:28;;;;;;;1.15;1.05;;;26.00;55.70;;;;;;4964510;28;20030;-50
2023/07/16 03:59:54;;;;;;;2.42;1.38;;;26.00;55.90;;;;;;4959962;28;20392;-51
2023/07/16 04:02:19;;;;;;;1.27;1.17;;;26.00;55.80;;;;;;4959576;28;20031;-54
2023/07/16 04:04:45;;;;;;;2.90;1.55;;;26.00;55.90;;;;;;4962575;28;20058;-51
2023/07/16 04:07:10;;;;;;;1.67;1.15;;;26.00;55.90;;;;;;4962588;28;20624;-52
2023/07/16 04:09:39;;;;;;;1.95;1.27;;;26.00;55.80;;;;;;4959337;28;20027;-51
2023/07/16 04:12:06;;;;;;;1.48;1.27;;;26.00;55.90;;;;;;4958813;28;20449;-50
2023/07/16 04:14:32;;;;;;;2.00;1.40;;;26.00;55.80;;;;;;4961183;28;20062;-53
2023/07/16 04:16:58;;;;;;;3.33;1.70;;;26.00;56.10;;;;;;4959702;28;20593;-50
2023/07/16 04:19:23;;;;;;;2.05;1.10;;;26.00;56.00;;;;;;4958909;28;20031;-52
2023/07/16 04:21:49;;;;;;;1.23;1.13;;;26.00;56.00;;;;;;4959331;28;20722;-51
2023/07/16 04:24:14;;;;;;;2.35;1.30;;;26.00;56.30;;;;;;4958894;28;20039;-51
2023/07/16 04:26:40;;;;;;;1.55;1.45;;;26.00;56.10;;;;;;4952081;28;20034;-51
2023/07/16 04:29:05;;;;;;;1.58;1.38;;;26.00;56.20;;;;;;4960225;28;20440;-54
2023/07/16 04:31:31;;;;;;;2.28;1.25;;;26.00;56.10;;;;;;4959090;28;20039;-52
2023/07/16 04:33:56;;;;;;;1.17;1.00;;;26.00;56.20;;;;;;4958743;28;20035;-52
2023/07/16 04:36:22;;;;;;;1.23;1.13;;;26.00;56.10;;;;;;4962942;28;20035;-50
2023/07/16 04:38:48;;;;;;;1.17;1.08;;;26.00;56.20;;;;;;4963032;28;20034;-50
2023/07/16 04:41:13;;;;;;;1.35;1.25;;;26.00;56.20;;;;;;4962901;28;20502;-50
2023/07/16 04:43:39;;;;;;;1.52;1.20;;;26.00;56.20;;;;;;4956652;28;20026;-52
2023/07/16 04:46:05;;;;;;;0.93;0.82;;;26.00;56.30;;;;;;4953629;28;20026;-52
2023/07/16 04:48:30;;;;;;;2.25;1.10;;;26.00;56.30;;;;;;4967568;28;20035;-52
2023/07/16 04:50:56;;;;;;;1.58;1.35;;;26.00;56.30;;;;;;4958812;28;20054;-52
2023/07/16 04:53:22;;;;;;;1.25;1.13;;;26.00;56.20;;;;;;4953047;28;20043;-50
2023/07/16 04:55:49;;;;;;;1.13;1.02;;;26.00;56.30;;;;;;4955597;28;20045;-49
2023/07/16 04:58:15;;;;;;;1.30;1.20;;;26.00;56.30;;;;;;4962479;28;20027;-53
2023/07/16 05:00:40;;;;;;;1.52;1.40;;;26.00;56.50;;;;;;4951156;28;20035;-53
2023/07/16 05:03:06;;;;;;;2.20;1.50;;;26.00;56.30;;;;;;4956393;28;20035;-52
2023/07/16 05:05:32;;;;;;;1.98;1.08;;;26.00;56.50;;;;;;4961610;28;20027;-59
2023/07/16 05:07:57;;;;;;;1.10;1.00;;;26.00;56.30;;;;;;4960005;28;20062;-50
2023/07/16 05:10:23;;;;;;;0.98;0.93;;;26.00;56.20;;;;;;4957607;28;20054;-52
2023/07/16 05:12:48;;;;;;;2.53;1.20;;;26.00;56.30;;;;;;4951663;28;20031;-52
2023/07/16 05:15:14;;;;;;;1.25;1.02;;;26.00;56.10;;;;;;4949826;28;20059;-51
2023/07/16 05:17:40;;;;;;;1.27;1.17;;;26.00;56.30;;;;;;4962683;28;20035;-51
2023/07/16 05:20:06;;;;;;;1.25;1.13;;;26.00;56.10;;;;;;4962797;28;20027;-53
2023/07/16 05:22:32;;;;;;;1.63;1.30;;;26.00;56.30;;;;;;4956334;28;20089;-57
2023/07/16 05:24:58;;;;;;;0.90;0.90;;;26.00;56.40;;;;;;4957141;28;20033;-53
2023/07/16 05:27:24;;;;;;;1.52;1.20;;;26.00;56.50;;;;;;4956968;28;20130;-54
2023/07/16 05:29:50;;;;;;;1.80;1.15;;;26.00;56.50;;;;;;4962531;28;20035;-51
2023/07/16 05:32:15;;;;;;;1.33;1.02;;;26.00;56.50;;;;;;4962787;28;20035;-50
2023/07/16 05:34:41;;;;;;;1.27;1.05;;;26.00;56.50;;;;;;4956617;28;20031;-50
2023/07/16 05:37:07;;;;;;;2.58;1.00;;;26.00;56.50;;;;;;4957039;28;20190;-52
2023/07/16 05:39:32;;;;;;;1.35;0.90;;;26.00;56.60;;;;;;4956257;28;20046;-58
2023/07/16 05:41:58;;;;;;;1.10;0.85;;;26.00;56.40;;;;;;4951867;28;20038;-54
2023/07/16 05:44:23;;;;;;;1.95;1.00;;;26.00;56.60;;;;;;4952163;28;20038;-50
2023/07/16 05:46:49;;;;;;;0.90;0.90;;;26.00;56.50;;;;;;4954005;28;20634;-51
2023/07/16 05:49:14;;;;;;;1.67;0.88;;;26.00;57.20;;;;;;4960013;28;20114;-51
2023/07/16 05:51:40;;;;;;;1.10;1.00;;;26.00;56.50;;;;;;4958998;28;20035;-54
2023/07/16 05:54:06;;;;;;;1.20;1.10;;;26.00;56.50;;;;;;4960423;28;20187;-50
2023/07/16 05:56:31;;;;;;;1.17;1.08;;;26.00;56.50;;;;;;4960170;28;20126;-51
2023/07/16 05:58:57;;;;;;;2.00;0.90;;;26.00;56.50;;;;;;4966750;28;20134;-54
2023/07/16 06:01:23;;;;;;;0.93;0.80;;;26.00;56.50;;;;;;4965814;28;20035;-52
2023/07/16 06:03:48;;;;;;;1.05;0.85;;;26.00;56.60;;;;;;4962776;28;20095;-49
2023/07/16 06:06:14;;;;;;;2.30;1.17;;;26.00;56.50;;;;;;4956453;28;20043;-52
2023/07/16 06:08:39;;;;;;;1.00;0.90;;;26.00;56.60;;;;;;4959285;28;20085;-52
2023/07/16 06:11:05;;;;;;;1.25;1.10;;;26.00;56.50;;;;;;4960958;28;20069;-54
2023/07/16 06:13:31;;;;;;;0.80;0.80;;;26.00;57.20;;;;;;4959652;28;20031;-54
2023/07/16 06:15:56;;;;;;;1.30;1.00;;;26.00;56.50;;;;;;4956233;28;20035;-50
2023/07/16 06:18:22;;;;;;;1.27;1.17;;;26.00;56.80;;;;;;4963583;28;22593;-49
2023/07/16 06:20:48;;;;;;;2.92;1.02;;;26.00;56.50;;;;;;4965565;28;20154;-52
2023/07/16 06:23:16;;;;;;;1.00;0.90;;;26.00;56.50;;;;;;4965257;28;20042;-51
2023/07/16 06:25:46;;;;;;;1.05;0.95;;;26.10;56.60;;;;;;4958634;28;20039;-51
2023/07/16 06:28:12;;;;;;;0.88;0.80;;;26.00;56.50;;;;;;4959517;28;20078;-53
2023/07/16 06:30:38;;;;;;;1.23;1.13;;;26.10;56.40;;;;;;4951368;28;20081;-50
2023/07/16 06:33:04;;;;;;;0.70;0.70;;;26.10;56.60;;;;;;4949647;28;20035;-53
2023/07/16 06:35:30;;;;;;;1.20;1.10;;;26.10;56.60;;;;;;4950583;28;20034;-52
2023/07/16 06:37:55;;;;;;;0.95;0.82;;;26.10;56.40;;;;;;4958938;28;20039;-49
2023/07/16 06:40:21;;;;;;;1.33;1.10;;;26.10;56.40;;;;;;4956812;28;20031;-50
2023/07/16 06:42:46;;;;;;;1.50;1.40;;;26.10;56.50;;;;;;4951286;28;20097;-52
2023/07/16 06:45:12;;;;;;;1.00;0.70;;;26.10;56.30;;;;;;4958566;28;20062;-50
2023/07/16 06:47:37;;;;;;;2.33;1.10;;;26.10;56.30;;;;;;4958589;28;20034;-56
2023/07/16 06:50:03;;;;;;;1.48;0.70;;;26.10;56.30;;;;;;4960194;28;20019;-50
2023/07/16 06:52:30;;;;;;;1.25;1.15;;;26.10;56.20;;;;;;4961491;28;20035;-51
2023/07/16 06:54:56;;;;;;;1.75;1.20;;;26.10;56.10;;;;;;4958859;28;20059;-53
2023/07/16 06:57:25;;;;;;;1.63;0.90;;;26.10;56.00;;;;;;4955304;28;20062;-50
2023/07/16 06:59:50;;;;;;;1.17;1.08;;;26.10;55.90;;;;;;4960367;28;20110;-51
2023/07/16 07:02:17;;;;;;;1.50;1.40;;;26.00;56.00;;;;;;4960558;28;20114;-49
2023/07/16 07:04:43;;;;;;;1.33;0.93;;;26.10;55.80;;;;;;4957926;28;20172;-52
2023/07/16 07:07:09;;;;;;;2.58;1.25;;;26.00;55.70;;;;;;4947260;28;20525;-52
2023/07/16 07:09:34;;;;;;;1.38;1.13;;;26.10;55.90;;;;;;4959342;28;20058;-50
2023/07/16 07:12:00;;;;;;;1.75;0.98;;;26.10;55.80;;;;;;4964070;28;20098;-51
2023/07/16 07:14:26;;;;;;;1.30;1.10;;;26.00;55.70;;;;;;4955595;28;20046;-50
2023/07/16 07:16:52;;;;;;;1.13;0.90;;;26.10;56.50;;;;;;4954271;28;20053;-51
2023/07/16 07:19:17;;;;;;;1.55;1.45;;;26.10;56.20;;;;;;4948608;28;20031;-50
2023/07/16 07:21:43;;;;;;;1.40;1.10;;;26.10;56.10;;;;;;4960946;28;20027;-51
2023/07/16 07:24:08;;;;;;;4.72;1.63;;;26.00;55.80;;;;;;4953332;28;20039;-58
2023/07/16 07:26:34;;;;;;;1.20;1.00;;;26.00;55.70;;;;;;4950026;28;20531;-52
2023/07/16 07:28:59;;;;;;;1.60;1.10;;;26.00;56.30;;;;;;4963378;28;20035;-53
2023/07/16 07:31:25;;;;;;;2.33;1.30;;;26.00;55.70;;;;;;4950027;28;20389;-51
2023/07/16 07:33:50;;;;;;;2.28;1.25;;;26.00;55.90;;;;;;4954422;28;20058;-49
2023/07/16 07:36:16;;;;;;;1.02;0.90;;;26.00;56.20;;;;;;4960360;28;20039;-51
2023/07/16 07:38:41;;;;;;;1.27;1.13;;;26.00;55.80;;;;;;4955715;28;20035;-51
2023/07/16 07:41:07;;;;;;;1.15;0.98;;;26.00;55.90;;;;;;4959600;28;20046;-50
2023/07/16 07:43:32;;;;;;;1.77;1.23;;;26.00;55.80;;;;;;4946375;28;20444;-52
2023/07/16 07:45:58;;;;;;;0.90;0.77;;;26.00;55.90;;;;;;4960366;28;21988;-50
2023/07/16 07:48:23;;;;;;;2.22;1.10;;;26.00;55.80;;;;;;4953611;28;20045;-50
2023/07/16 07:50:49;;;;;;;1.52;1.20;;;26.00;56.00;;;;;;4960830;28;20031;-51
2023/07/16 07:53:18;;;;;;;1.25;1.15;;;26.00;55.70;;;;;;4945957;28;20051;-49
2023/07/16 07:55:44;;;;;;;1.83;1.23;;;26.00;55.70;;;;;;4962445;28;20035;-52
2023/07/16 07:58:10;;;;;;;1.17;1.00;;;26.00;55.60;;;;;;4964157;28;20100;-50
2023/07/16 08:00:35;;;;;;;1.63;1.10;;;26.00;55.50;;;;;;4963645;28;20121;-49
2023/07/16 08:03:01;;;;;;;1.80;1.08;;;26.00;55.50;;;;;;4964045;28;20034;-51
2023/07/16 08:05:27;;;;;;;1.63;0.93;;;26.00;56.20;;;;;;4963487;28;20034;-51
2023/07/16 08:07:53;;;;;;;1.63;0.90;;;26.00;55.90;;;;;;4962574;28;20034;-52
2023/07/16 08:10:19;;;;;;;2.28;1.42;;;26.00;55.50;;;;;;4963715;28;20614;-52
2023/07/16 08:12:44;;;;;;;1.65;1.15;;;26.00;55.50;;;;;;4962581;28;20096;-51
2023/07/16 08:15:14;;;;;;;1.48;0.90;;;26.00;55.50;;;;;;4963697;28;20535;-53
2023/07/16 08:17:41;;;;;;;1.15;0.95;;;26.00;55.80;;;;;;4962182;28;20058;-51
2023/07/16 08:20:08;;;;;;;2.10;1.15;;;26.00;55.70;;;;;;4964000;28;20127;-53
2023/07/16 08:22:33;;;;;;;1.30;0.80;;;26.00;55.80;;;;;;4962402;28;20031;-52
2023/07/16 08:24:59;;;;;;;1.35;1.17;;;26.00;55.90;;;;;;4963353;28;20050;-53
2023/07/16 08:27:24;;;;;;;1.92;1.20;;;26.00;55.80;;;;;;4963350;28;20034;-49
2023/07/16 08:29:50;;;;;;;1.80;1.25;;;26.00;55.20;;;;;;4962931;28;20023;-50
2023/07/16 08:32:15;;;;;;;2.05;1.27;;;26.00;55.30;;;;;;4963811;28;20030;-50
2023/07/16 08:34:41;;;;;;;2.85;1.30;;;26.00;54.90;;;;;;4962560;28;20057;-50
2023/07/16 08:37:06;;;;;;;1.65;1.20;;;26.00;55.00;;;;;;4963797;28;20042;-51
2023/07/16 08:39:32;;;;;;;2.95;1.27;;;26.00;54.90;;;;;;4962438;28;20038;-53
2023/07/16 08:41:58;;;;;;;1.55;1.20;;;26.00;54.90;;;;;;4963274;28;20125;-53
2023/07/16 08:44:23;;;;;;;1.30;1.10;;;26.00;55.40;;;;;;4963267;28;20049;-50
2023/07/16 08:46:51;;;;;;;3.13;1.17;;;26.00;55.00;;;;;;4961935;28;20051;-49
2023/07/16 08:49:19;;;;;;;1.23;1.13;;;26.00;54.60;;;;;;4962984;28;20039;-51
2023/07/16 08:51:49;;;;;;;2.17;1.10;;;26.00;54.60;;;;;;4961928;28;20046;-50
2023/07/16 08:54:17;;;;;;;1.73;0.95;;;26.00;54.80;;;;;;4963217;28;20034;-52
2023/07/16 08:56:44;;;;;;;1.70;1.30;;;26.00;55.00;;;;;;4962083;28;20105;-52
2023/07/16 08:59:10;;;;;;;1.63;1.05;;;26.00;55.40;;;;;;4962417;28;20042;-52
2023/07/16 09:01:37;;;;;;;1.20;1.05;;;25.90;55.40;;;;;;4962501;28;20039;-49
2023/07/16 09:04:03;;;;;;;3.13;1.75;;;26.00;54.90;;;;;;4963440;28;20054;-51
2023/07/16 09:06:29;;;;;;;2.38;1.10;;;26.00;54.70;;;;;;4962164;28;20079;-54
2023/07/16 09:08:55;;;;;;;1.60;0.90;;;25.90;54.70;;;;;;4962137;28;20043;-52
2023/07/16 09:11:21;;;;;;;2.85;1.17;;;26.00;54.90;;;;;;4961970;28;20602;-52
2023/07/16 09:13:48;;;;;;;2.65;1.38;;;26.00;54.70;;;;;;4960696;28;20098;-50
2023/07/16 09:16:16;;;;;;;2.75;1.30;;;26.00;54.20;;;;;;4962539;28;20513;-50
2023/07/16 09:18:42;;;;;;;3.10;1.35;;;25.90;54.50;;;;;;4963245;28;20031;-50
2023/07/16 09:21:07;;;;;;;1.75;1.30;;;26.00;54.80;;;;;;4966708;28;20086;-51
2023/07/16 09:23:34;;;;;;;2.67;1.30;;;25.90;55.80;;;;;;4968790;28;20519;-53
2023/07/16 09:25:59;;;;;;;1.45;1.30;;;25.90;56.40;;;;;;4967429;28;20492;-52
2023/07/16 09:28:25;;;;;;;1.70;1.23;;;25.90;56.40;;;;;;4965769;28;20054;-52
2023/07/16 09:30:51;;;;;;;1.20;0.98;;;25.90;56.10;;;;;;4964153;28;20046;-50
2023/07/16 09:33:19;;;;;;;2.90;1.45;;;25.90;56.20;;;;;;4966817;28;20030;-54
2023/07/16 09:35:48;;;;;;;2.67;1.15;;;25.80;56.20;;;;;;4965030;28;20524;-54
2023/07/16 09:38:14;;;;;;;2.25;1.30;;;25.80;55.90;;;;;;4964657;28;20154;-50
2023/07/16 09:40:42;;;;;;;3.53;1.27;;;25.80;55.90;;;;;;4963989;28;20121;-52
2023/07/16 09:43:09;;;;;;;3.17;1.70;;;25.70;55.70;;;;;;4965442;28;20504;-50
2023/07/16 09:45:34;;;;;;;2.47;1.40;;;25.70;55.50;;;;;;4964799;28;20496;-52
2023/07/16 09:48:00;;;;;;;3.05;1.60;;;25.80;55.50;;;;;;4965121;28;20121;-50
2023/07/16 09:50:31;;;;;;;2.83;1.50;;;25.70;55.20;;;;;;4964235;28;20148;-53
2023/07/16 09:52:57;;;;;;;2.53;1.60;;;25.70;55.10;;;;;;4964653;28;20035;-49
2023/07/16 09:55:24;;;;;;;3.70;1.40;;;25.70;55.10;;;;;;4965005;28;20026;-50
2023/07/16 09:57:54;;;;;;;4.15;1.75;;;25.80;55.30;;;;;;4962922;28;20698;-53
2023/07/16 10:00:22;;;;;;;3.65;1.60;;;25.70;55.20;;;;;;4966603;28;20101;-54
2023/07/16 10:02:48;;;;;;;3.80;1.85;;;25.70;55.00;;;;;;4962459;28;20059;-49
2023/07/16 10:05:15;;;;;;;3.17;2.00;;;25.60;54.80;;;;;;4965557;28;20503;-50
2023/07/16 10:07:41;;;;;;;2.72;2.00;;;25.60;54.60;;;;;;4962554;28;20074;-52
2023/07/16 10:10:11;;;;;;;4.53;2.05;;;25.70;54.40;;;;;;4965144;28;20031;-52
2023/07/16 10:12:38;;;;;;;2.50;1.83;;;25.60;54.30;;;;;;4963112;28;20041;-53
2023/07/16 10:15:05;;;;;;;4.50;1.88;;;25.60;54.20;;;;;;4964955;28;20030;-52
2023/07/16 10:17:32;;;;;;;4.63;1.85;;;25.70;54.30;;;;;;4962675;28;20027;-54
2023/07/16 10:19:59;;;;;;;4.70;2.38;;;25.60;54.20;;;;;;4964526;28;20093;-51
2023/07/16 10:22:37;;;;;;;4.15;1.77;;;25.60;54.30;;;;;;4966729;28;20052;-53
2023/07/16 10:25:23;;;;;;;4.18;1.90;;;25.70;54.50;;;;;;4964495;28;20038;-52
2023/07/16 10:27:51;;;;;;;5.10;2.35;;;25.70;54.70;;;;;;4964764;28;20397;-52
2023/07/16 10:30:17;;;;;;;3.60;1.80;;;25.70;54.70;;;;;;4963898;28;20038;-53
2023/07/16 10:32:43;;;;;;;2.97;1.77;;;25.70;54.90;;;;;;4963126;28;20038;-50
2023/07/16 10:35:09;;;;;;;2.42;1.98;;;25.70;54.80;;;;;;4960620;28;20053;-50
2023/07/16 10:37:35;;;;;;;4.05;1.73;;;25.70;54.90;;;;;;4962822;28;20503;-49
2023/07/16 10:40:06;;;;;;;3.05;1.75;;;25.70;54.80;;;;;;4963445;28;20449;-51
2023/07/16 10:42:32;;;;;;;2.97;1.80;;;25.70;54.90;;;;;;4962404;28;20031;-53
2023/07/16 10:45:00;;;;;;;1.90;1.70;;;25.70;54.90;;;;;;4964174;28;20039;-53
2023/07/16 10:47:33;;;;;;;3.70;1.77;;;25.70;54.80;;;;;;4963309;28;20078;-50
2023/07/16 10:49:59;;;;;;;2.28;1.70;;;25.70;54.80;;;;;;4960271;28;20039;-52
2023/07/16 10:52:26;;;;;;;3.33;2.40;;;25.70;54.90;;;;;;4965721;28;20062;-49
2023/07/16 10:54:54;;;;;;;4.30;2.50;;;25.70;54.90;;;;;;4964521;28;20038;-53
2023/07/16 10:57:21;;;;;;;3.03;2.13;;;25.70;55.10;;;;;;4965263;28;20035;-52
2023/07/16 10:59:48;;;;;;;3.72;1.70;;;25.70;55.20;;;;;;4960199;28;20038;-51
2023/07/16 11:02:15;;;;;;;3.28;1.90;;;25.70;55.20;;;;;;4963957;28;20042;-50
2023/07/16 11:04:41;;;;;;;3.63;1.92;;;25.70;55.30;;;;;;4964819;28;20046;-49
2023/07/16 11:07:11;;;;;;;4.70;1.80;;;25.70;55.20;;;;;;4964809;28;20122;-50
2023/07/16 11:09:53;;;;;;;2.67;1.75;;;25.70;55.10;;;;;;4964563;28;20039;-50
2023/07/16 11:12:21;;;;;;;2.80;1.65;;;25.70;55.00;;;;;;4960757;28;20047;-50
2023/07/16 11:14:55;;;;;;;3.08;1.70;;;25.70;55.00;;;;;;4960217;28;20868;-52
2023/07/16 11:17:24;;;;;;;1.67;1.58;;;25.70;55.00;;;;;;4963216;28;20031;-53
2023/07/16 11:19:51;;;;;;;2.47;1.63;;;25.70;55.00;;;;;;4957560;28;20438;-50
2023/07/16 11:22:17;;;;;;;4.15;1.77;;;25.70;54.90;;;;;;4960734;28;20049;-50
2023/07/16 11:24:45;;;;;;;3.47;1.85;;;25.70;55.00;;;;;;4962744;28;20035;-50
2023/07/16 11:27:15;;;;;;;2.45;1.70;;;25.70;55.00;;;;;;4962545;28;20111;-49
2023/07/16 11:30:01;;;;;;;2.17;1.60;;;25.70;55.00;;;;;;4961234;28;20038;-53
2023/07/16 11:32:45;;;;;;;2.60;1.65;;;25.70;55.10;;;;;;4961338;28;20031;-52
2023/07/16 11:35:17;;;;;;;2.42;1.67;;;25.70;55.20;;;;;;4958027;28;20652;-53
2023/07/16 11:37:43;;;;;;;3.25;1.42;;;25.70;55.00;;;;;;4949651;28;20416;-49
2023/07/16 11:40:10;;;;;;;2.70;1.85;;;25.70;55.10;;;;;;4961853;28;20484;-50
2023/07/16 11:42:36;;;;;;;2.97;1.92;;;25.70;55.10;;;;;;4961539;28;20047;-52
2023/07/16 11:45:03;;;;;;;2.97;1.90;;;25.70;54.90;;;;;;4961396;28;20552;-50
2023/07/16 11:47:30;;;;;;;3.28;1.85;;;25.70;54.90;;;;;;4959150;28;20677;-50
2023/07/16 11:49:57;;;;;;;3.53;1.95;;;25.70;54.60;;;;;;4961463;28;20039;-51
2023/07/16 11:52:24;;;;;;;2.40;1.75;;;25.70;54.70;;;;;;4959779;28;20027;-51
2023/07/16 11:54:54;;;;;;;2.97;1.70;;;25.70;54.80;;;;;;4961890;28;20452;-51
2023/07/16 11:57:20;;;;;;;2.30;1.48;;;25.70;54.80;;;;;;4958233;28;20448;-52
2023/07/16 11:59:46;;;;;;;2.53;2.05;;;25.70;54.80;;;;;;4961558;28;20039;-52
2023/07/16 12:02:12;;;;;;;2.92;1.70;;;25.70;54.80;;;;;;4961864;28;20121;-50
2023/07/16 12:04:37;;;;;;;2.33;1.80;;;25.70;54.90;;;;;;4962859;28;20034;-50
2023/07/16 12:07:03;;;;;;;2.10;1.45;;;25.70;54.80;;;;;;4959356;28;20043;-50
2023/07/16 12:09:29;;;;;;;2.97;1.50;;;25.70;54.70;;;;;;4958342;28;20051;-51
2023/07/16 12:11:54;;;;;;;2.60;1.50;;;25.70;54.70;;;;;;4961419;28;20437;-51
2023/07/16 12:14:20;;;;;;;2.63;1.75;;;25.70;54.70;;;;;;4962559;28;20038;-52
2023/07/16 12:16:46;;;;;;;2.05;1.70;;;25.70;54.60;;;;;;4957894;28;20035;-53
2023/07/16 12:19:11;;;;;;;3.85;1.80;;;25.70;54.70;;;;;;4963030;28;20041;-50
2023/07/16 12:21:37;;;;;;;2.13;1.65;;;25.70;54.70;;;;;;4960526;28;20117;-53
2023/07/16 12:24:02;;;;;;;4.07;2.00;;;25.70;54.70;;;;;;4963413;28;20039;-52
2023/07/16 12:26:28;;;;;;;2.00;1.63;;;25.70;54.70;;;;;;4960041;28;20722;-50
2023/07/16 12:28:54;;;;;;;3.80;2.05;;;25.70;54.70;;;;;;4956891;28;20051;-52
2023/07/16 12:31:21;;;;;;;2.70;1.80;;;25.70;54.60;;;;;;4959081;28;20035;-52
2023/07/16 12:33:47;;;;;;;1.75;1.63;;;25.70;54.50;;;;;;4954021;28;20035;-53
2023/07/16 12:36:13;;;;;;;3.85;1.70;;;25.70;54.50;;;;;;4960165;28;20046;-50
2023/07/16 12:38:39;;;;;;;4.80;2.10;;;25.70;54.30;;;;;;4959371;28;20676;-53
2023/07/16 12:41:05;;;;;;;3.47;1.90;;;25.70;54.30;;;;;;4959889;28;20077;-49
2023/07/16 12:43:33;;;;;;;3.30;1.88;;;25.70;54.30;;;;;;4962979;28;20576;-49
2023/07/16 12:46:03;;;;;;;3.22;1.70;;;25.70;54.30;;;;;;4955748;28;20035;-53